Time;durP1;ratioP1;P1;durP2;ratioP2;P2;SDS_P1;SDS_P2;PMS_P1;PMS_P2;Temp;Humidity;BMP_temperature;BMP_pressure;BME280_temperature;BME280_humidity;BME280_pressure;Samples;Min_cycle;Max_cycle;Signal;HPM_P1;HPM_P2
2023/07/30 00:02:32;;;;;;;;;;;;;;;19.14;50.82;96384.94;6102536;29;19927;-71
2023/07/30 00:05:36;;;;;;;;;;;;;;;19.07;50.96;96389.25;6085677;29;19927;-70
2023/07/30 00:08:39;;;;;;;;;;;;;;;19.03;50.87;96385.28;6102299;29;20017;-71
2023/07/30 00:11:42;;;;;;;;;;;;;;;18.96;50.76;96387.75;6101942;29;19927;-70
2023/07/30 00:14:46;;;;;;;;;;;;;;;18.88;50.81;96385.06;6085311;29;19927;-70
2023/07/30 00:17:49;;;;;;;;;;;;;;;18.81;50.96;96384.03;6101991;29;19927;-71
2023/07/30 00:20:53;;;;;;;;;;;;;;;18.77;51.94;96388.88;6102193;29;20033;-71
2023/07/30 00:23:57;;;;;;;;;;;;;;;18.78;52.26;96390.53;6101756;29;20430;-71
2023/07/30 00:26:58;;;;;;;;;;;;;;;18.77;51.83;96388.88;6101795;29;20075;-71
2023/07/30 00:30:01;;;;;;;;;;;;;;;18.76;51.64;96395.19;6085109;29;19927;-71
2023/07/30 00:33:02;;;;;;;;;;;;;;;18.73;51.29;96391.97;6101574;29;20340;-70
2023/07/30 00:36:08;;;;;;;;;;;;;;;18.72;51.20;96401.00;6101613;29;20377;-70
2023/07/30 00:39:11;;;;;;;;;;;;;;;18.69;51.01;96396.81;6101825;29;19931;-71
2023/07/30 00:42:12;;;;;;;;;;;;;;;18.65;51.03;96390.13;6101333;29;19927;-71
2023/07/30 00:45:19;;;;;;;;;;;;;;;18.61;51.28;96400.28;6101629;29;19933;-70
2023/07/30 00:48:20;;;;;;;;;;;;;;;18.58;51.90;96394.44;6101240;29;20401;-70
2023/07/30 00:51:24;;;;;;;;;;;;;;;18.57;51.71;96398.09;6101550;29;20254;-70
2023/07/30 00:54:28;;;;;;;;;;;;;;;18.60;51.67;96397.78;6101651;29;20393;-71
2023/07/30 00:57:32;;;;;;;;;;;;;;;18.61;51.63;96404.78;6101383;29;19927;-71
2023/07/30 01:00:35;;;;;;;;;;;;;;;18.64;51.59;96404.44;6101315;29;19923;-71
2023/07/30 01:03:36;;;;;;;;;;;;;;;18.68;51.60;96415.63;6084221;29;19930;-70
2023/07/30 01:06:42;;;;;;;;;;;;;;;18.73;51.48;96413.31;6101591;29;19927;-72
2023/07/30 01:09:46;;;;;;;;;;;;;;;18.77;51.34;96410.19;6101113;29;19934;-70
2023/07/30 01:12:50;;;;;;;;;;;;;;;18.83;51.49;96408.72;6101211;29;20309;-71
2023/07/30 01:15:59;;;;;;;;;;;;;;;18.89;51.62;96412.56;6084568;29;19927;-71
2023/07/30 01:19:04;;;;;;;;;;;;;;;18.96;51.68;96408.25;6101262;29;20536;-70
2023/07/30 01:22:05;;;;;;;;;;;;;;;19.01;51.11;96412.09;6100051;29;20466;-71
2023/07/30 01:25:06;;;;;;;;;;;;;;;19.07;51.36;96407.94;6100701;29;19927;-71
2023/07/30 01:28:10;;;;;;;;;;;;;;;19.12;51.56;96402.94;6100608;29;19930;-71
2023/07/30 01:31:17;;;;;;;;;;;;;;;19.19;51.54;96414.63;6100915;29;19931;-71
2023/07/30 01:34:20;;;;;;;;;;;;;;;19.27;51.53;96409.28;6100014;29;19935;-70
2023/07/30 01:37:22;;;;;;;;;;;;;;;19.37;52.16;96421.66;6101587;29;19966;-71
2023/07/30 01:40:23;;;;;;;;;;;;;;;19.46;51.61;96418.00;6088314;29;20017;-71
2023/07/30 01:43:26;;;;;;;;;;;;;;;19.55;51.06;96419.66;6105593;29;19927;-70
2023/07/30 01:46:27;;;;;;;;;;;;;;;19.60;51.29;96422.66;6105070;29;20427;-71
2023/07/30 01:49:28;;;;;;;;;;;;;;;19.70;51.47;96422.50;6105267;29;19926;-70
2023/07/30 01:52:30;;;;;;;;;;;;;;;19.79;51.29;96421.53;6104973;29;19931;-71
2023/07/30 01:55:31;;;;;;;;;;;;;;;19.88;51.12;96422.34;6105313;29;20408;-71
2023/07/30 01:58:35;;;;;;;;;;;;;;;19.95;50.70;96420.66;6073801;29;20172;-70
2023/07/30 02:01:41;;;;;;;;;;;;;;;20.03;50.73;96420.66;6105336;29;20398;-71
2023/07/30 02:04:44;;;;;;;;;;;;;;;20.12;50.85;96416.97;6105073;29;19933;-71
2023/07/30 02:07:45;;;;;;;;;;;;;;;20.23;51.13;96422.97;6088304;29;20207;-70
2023/07/30 02:10:54;;;;;;;;;;;;;;;20.33;50.91;96424.44;6105012;29;20033;-71
2023/07/30 02:13:55;;;;;;;;;;;;;;;20.46;50.51;96429.22;6104992;29;20025;-70
2023/07/30 02:16:56;;;;;;;;;;;;;;;20.54;50.09;96426.56;6104792;29;20386;-70
2023/07/30 02:19:59;;;;;;;;;;;;;;;20.65;50.27;96432.56;6088120;29;19934;-70
2023/07/30 02:23:05;;;;;;;;;;;;;;;20.74;49.48;96431.50;6104769;29;19931;-70
2023/07/30 02:26:09;;;;;;;;;;;;;;;20.84;49.88;96432.97;6104737;29;19931;-70
2023/07/30 02:29:14;;;;;;;;;;;;;;;20.94;49.57;96440.75;6104681;29;19923;-71
2023/07/30 02:32:18;;;;;;;;;;;;;;;21.03;49.25;96437.06;6087670;29;19934;-71
2023/07/30 02:35:19;;;;;;;;;;;;;;;21.14;49.28;96445.69;6087278;29;19949;-71
2023/07/30 02:38:20;;;;;;;;;;;;;;;21.22;49.21;96445.63;6104576;29;19923;-70
2023/07/30 02:41:26;;;;;;;;;;;;;;;21.26;49.17;96441.63;6104251;29;19927;-71
2023/07/30 02:44:30;;;;;;;;;;;;;;;21.31;49.31;96449.91;6104430;29;19923;-71
2023/07/30 02:47:31;;;;;;;;;;;;;;;21.42;50.03;96449.53;6071679;29;20074;-71
2023/07/30 02:50:33;;;;;;;;;;;;;;;21.36;49.63;96449.41;6086884;29;19938;-71
2023/07/30 02:53:34;;;;;;;;;;;;;;;21.43;50.01;96453.91;6086882;29;20401;-70
2023/07/30 02:56:35;;;;;;;;;;;;;;;21.43;50.16;96453.06;6087506;29;19927;-71
2023/07/30 02:59:37;;;;;;;;;;;;;;;21.50;49.84;96451.34;6103904;29;19935;-71
2023/07/30 03:02:38;;;;;;;;;;;;;;;21.61;50.31;96452.78;6103788;29;19950;-71
2023/07/30 03:05:41;;;;;;;;;;;;;;;21.70;50.19;96459.72;6086968;29;19927;-71
2023/07/30 03:08:45;;;;;;;;;;;;;;;21.79;49.58;96453.28;6103642;29;19927;-70
2023/07/30 03:11:49;;;;;;;;;;;;;;;21.89;49.19;96459.25;6103728;29;19934;-71
2023/07/30 03:14:51;;;;;;;;;;;;;;;21.97;49.12;96456.50;6103292;29;20417;-70
2023/07/30 03:17:56;;;;;;;;;;;;;;;22.07;48.87;96460.75;6104146;29;19927;-71
2023/07/30 03:21:03;;;;;;;;;;;;;;;22.19;48.28;96454.84;6104124;29;19927;-70
2023/07/30 03:24:04;;;;;;;;;;;;;;;22.28;48.44;96457.41;6103152;29;19927;-70
2023/07/30 03:27:06;;;;;;;;;;;;;;;22.35;48.50;96458.34;6103368;29;19927;-71
2023/07/30 03:30:15;;;;;;;;;;;;;;;22.40;48.67;96462.16;6103165;29;20401;-71
2023/07/30 03:33:18;;;;;;;;;;;;;;;22.45;48.51;96463.44;6103333;29;20350;-71
2023/07/30 03:36:21;;;;;;;;;;;;;;;22.57;48.58;96462.81;6103039;29;20386;-71
2023/07/30 03:39:22;;;;;;;;;;;;;;;22.66;48.72;96450.13;6102280;29;19939;-70
2023/07/30 03:42:23;;;;;;;;;;;;;;;22.76;48.21;96456.06;6102819;29;19927;-71
2023/07/30 03:45:28;;;;;;;;;;;;;;;22.84;48.05;96453.28;6102888;29;19927;-71
2023/07/30 03:48:33;;;;;;;;;;;;;;;23.00;48.00;96456.81;6102703;29;20022;-70
2023/07/30 03:51:39;;;;;;;;;;;;;;;23.06;47.93;96450.69;6102805;29;19927;-71
2023/07/30 03:54:43;;;;;;;;;;;;;;;23.18;47.44;96459.91;6102647;29;19927;-70
2023/07/30 03:57:47;;;;;;;;;;;;;;;23.31;47.49;96454.69;6085690;29;20481;-71
2023/07/30 04:00:51;;;;;;;;;;;;;;;23.46;47.37;96461.88;6101905;29;19927;-71
2023/07/30 04:03:52;;;;;;;;;;;;;;;23.59;46.90;96466.56;6102021;29;19927;-71
2023/07/30 04:06:55;;;;;;;;;;;;;;;23.72;46.72;96464.88;6085752;29;19927;-71
2023/07/30 04:09:58;;;;;;;;;;;;;;;23.85;46.25;96460.63;6102226;29;19927;-72
2023/07/30 04:13:05;;;;;;;;;;;;;;;23.97;46.68;96464.44;6102162;29;19927;-71
2023/07/30 04:16:08;;;;;;;;;;;;;;;24.13;46.49;96468.72;6101920;29;19934;-70
2023/07/30 04:19:11;;;;;;;;;;;;;;;24.30;45.54;96456.66;6102571;29;19923;-71
2023/07/30 04:22:15;;;;;;;;;;;;;;;24.41;45.33;96449.91;6101772;29;19962;-71
2023/07/30 04:25:18;;;;;;;;;;;;;;;24.56;45.31;96453.34;6101759;29;19927;-72
2023/07/30 04:28:21;;;;;;;;;;;;;;;24.60;45.24;96460.00;6101936;29;19927;-72
2023/07/30 04:31:22;;;;;;;;;;;;;;;24.78;45.18;96464.03;6101240;29;20033;-72
2023/07/30 04:34:29;;;;;;;;;;;;;;;24.70;45.33;96461.50;6085741;29;19931;-71
2023/07/30 04:37:36;;;;;;;;;;;;;;;24.72;45.25;96470.22;6101650;29;19931;-73
2023/07/30 04:40:39;;;;;;;;;;;;;;;24.82;45.29;96467.97;6101741;29;19927;-72
2023/07/30 04:43:42;;;;;;;;;;;;;;;25.41;44.25;96467.44;6101377;29;19927;-72
2023/07/30 04:46:46;;;;;;;;;;;;;;;28.19;40.28;96476.03;6100544;29;19950;-72
2023/07/30 04:49:48;;;;;;;;;;;;;;;31.88;35.09;96486.41;6100978;29;19927;-72
2023/07/30 04:52:49;;;;;;;;;;;;;;;35.34;31.95;96491.91;6101100;29;19927;-72
2023/07/30 04:55:56;;;;;;;;;;;;;;;38.20;28.28;96488.97;6101228;29;19931;-72
2023/07/30 04:59:01;;;;;;;;;;;;;;;40.66;27.64;96500.75;6100906;29;19927;-72
2023/07/30 05:02:05;;;;;;;;;;;;;;;43.13;25.62;96502.59;6101088;29;19927;-72
2023/07/30 05:05:09;;;;;;;;;;;;;;;44.28;21.16;96498.72;6101385;29;19934;-72
2023/07/30 05:08:13;;;;;;;;;;;;;;;45.30;22.31;96505.59;6101157;29;19935;-73
2023/07/30 05:11:16;;;;;;;;;;;;;;;47.11;21.46;96493.50;6101051;29;19927;-73
2023/07/30 05:14:18;;;;;;;;;;;;;;;48.57;20.62;96502.09;6068094;29;20437;-72
2023/07/30 05:17:24;;;;;;;;;;;;;;;49.56;19.77;96499.53;6100873;29;20406;-71
2023/07/30 05:20:28;;;;;;;;;;;;;;;50.35;18.41;96504.19;6084271;29;19931;-72
2023/07/30 05:23:29;;;;;;;;;;;;;;;50.56;15.05;96493.41;6096577;29;20452;-72
2023/07/30 05:26:33;;;;;;;;;;;;;;;50.17;16.63;96493.41;6101115;29;19927;-72
2023/07/30 05:29:36;;;;;;;;;;;;;;;51.10;16.44;96500.91;6084505;29;20029;-73
2023/07/30 05:32:39;;;;;;;;;;;;;;;51.32;14.05;96490.03;6100586;29;20026;-72
2023/07/30 05:35:42;;;;;;;;;;;;;;;50.43;13.61;96495.56;6100076;29;19927;-72
2023/07/30 05:38:43;;;;;;;;;;;;;;;50.09;14.11;96488.81;6100195;29;19927;-73
2023/07/30 05:41:45;;;;;;;;;;;;;;;50.59;14.21;96487.06;6099971;29;19927;-73
2023/07/30 05:44:50;;;;;;;;;;;;;;;51.82;12.68;96485.28;6083400;29;20051;-72
2023/07/30 05:47:53;;;;;;;;;;;;;;;52.23;13.69;96477.03;6083729;29;20565;-73
2023/07/30 05:50:57;;;;;;;;;;;;;;;52.68;13.33;96480.81;6099999;29;20042;-72
2023/07/30 05:53:58;;;;;;;;;;;;;;;53.09;11.04;96483.69;6100643;29;20022;-73
2023/07/30 05:56:59;;;;;;;;;;;;;;;53.86;12.88;96486.75;6100131;29;19926;-72
2023/07/30 06:00:05;;;;;;;;;;;;;;;54.64;12.87;96492.81;6084541;29;19927;-72
2023/07/30 06:03:09;;;;;;;;;;;;;;;55.03;10.07;96482.84;6111844;29;19986;-72
2023/07/30 06:06:14;;;;;;;;;;;;;;;55.65;12.02;96482.47;6125580;29;19931;-72
2023/07/30 06:09:22;;;;;;;;;;;;;;;57.07;10.46;96474.69;6128194;29;19951;-72
2023/07/30 06:12:26;;;;;;;;;;;;;;;57.32;10.08;96468.06;6129556;29;19927;-72
2023/07/30 06:15:28;;;;;;;;;;;;;;;56.18;10.71;96469.47;6128801;29;19938;-72
2023/07/30 06:18:32;;;;;;;;;;;;;;;56.09;9.03;96466.25;6129171;29;19919;-72
2023/07/30 06:21:34;;;;;;;;;;;;;;;54.29;10.49;96454.00;6129074;29;20344;-72
2023/07/30 06:24:39;;;;;;;;;;;;;;;54.97;9.98;96459.88;6127306;29;19927;-72
2023/07/30 06:27:44;;;;;;;;;;;;;;;55.08;9.99;96454.25;6133778;29;19933;-74
2023/07/30 06:30:46;;;;;;;;;;;;;;;55.99;9.89;96450.97;6134124;29;19979;-73
2023/07/30 06:33:51;;;;;;;;;;;;;;;56.48;9.79;96447.16;6133218;29;19959;-72
2023/07/30 06:36:56;;;;;;;;;;;;;;;57.66;9.64;96456.84;6132426;29;19919;-72
2023/07/30 06:40:07;;;;;;;;;;;;;;;59.20;8.79;96459.75;6104233;29;19959;-73
2023/07/30 07:07:38;;;;;;;;;;;;;;;57.64;7.69;96438.66;6961454;23;19941;-72
2023/07/30 07:10:47;;;;;;;;;;;;;;;57.69;8.04;96429.72;6142991;29;19917;-72
2023/07/30 07:44:46;;;;;;;;;;;;;;;58.05;7.57;96406.69;7515484;23;20721;-72
2023/07/30 07:47:49;;;;;;;;;;;;;;;57.11;7.90;96390.63;6115666;29;19937;-72
2023/07/30 07:50:55;;;;;;;;;;;;;;;56.96;8.08;96377.03;6130687;29;20358;-72
2023/07/30 07:54:07;;;;;;;;;;;;;;;56.81;8.31;96374.28;6130430;29;19927;-71
2023/07/30 07:57:09;;;;;;;;;;;;;;;57.96;7.76;96370.41;6130374;29;19933;-73
2023/07/30 08:00:14;;;;;;;;;;;;;;;59.31;7.45;96378.94;6116764;29;19978;-73
2023/07/30 08:03:17;;;;;;;;;;;;;;;60.29;6.52;96387.19;6117286;29;19927;-72
2023/07/30 08:06:21;;;;;;;;;;;;;;;60.30;6.73;96380.25;6117288;29;19969;-72
2023/07/30 08:09:30;;;;;;;;;;;;;;;59.03;6.90;96368.91;6133342;29;19927;-72
2023/07/30 08:12:34;;;;;;;;;;;;;;;56.48;8.05;96348.28;6131804;29;19934;-72
2023/07/30 08:15:40;;;;;;;;;;;;;;;55.13;8.64;96344.69;6096608;29;19934;-73
2023/07/30 08:18:44;;;;;;;;;;;;;;;54.89;9.16;96339.84;6085818;29;19931;-71
2023/07/30 08:21:47;;;;;;;;;;;;;;;55.76;8.42;96339.34;6102589;29;19950;-72
2023/07/30 08:24:48;;;;;;;;;;;;;;;56.71;8.22;96338.47;6085910;29;19933;-73
2023/07/30 08:27:50;;;;;;;;;;;;;;;57.59;7.82;96340.91;6110636;29;20480;-72
2023/07/30 08:30:52;;;;;;;;;;;;;;;57.78;7.69;96350.78;6100113;29;19927;-71
2023/07/30 08:33:59;;;;;;;;;;;;;;;56.51;7.93;96323.22;6089031;29;20445;-72
2023/07/30 08:37:03;;;;;;;;;;;;;;;56.10;8.65;96315.41;6101583;29;19927;-73
2023/07/30 08:40:09;;;;;;;;;;;;;;;56.60;8.44;96315.13;6101903;29;20408;-73
2023/07/30 08:43:13;;;;;;;;;;;;;;;57.02;8.18;96316.81;6101729;29;19927;-72
2023/07/30 08:46:15;;;;;;;;;;;;;;;56.89;8.32;96307.25;6101154;29;19927;-73
2023/07/30 08:49:22;;;;;;;;;;;;;;;57.57;7.92;96306.56;6085220;29;19931;-73
2023/07/30 08:52:25;;;;;;;;;;;;;;;57.65;7.70;96302.41;6100079;29;20369;-72
2023/07/30 08:55:29;;;;;;;;;;;;;;;57.20;8.05;96298.88;6101299;29;19927;-73
2023/07/30 08:58:33;;;;;;;;;;;;;;;56.81;7.95;96291.53;6101510;29;19934;-73
2023/07/30 09:01:40;;;;;;;;;;;;;;;57.88;7.60;96300.94;6084957;29;20013;-73
2023/07/30 09:04:48;;;;;;;;;;;;;;;57.70;7.74;96284.97;6101272;29;19934;-74
2023/07/30 09:07:51;;;;;;;;;;;;;;;57.80;7.67;96291.75;6100359;29;19955;-73
2023/07/30 09:10:57;;;;;;;;;;;;;;;58.13;7.21;96290.09;6100821;29;19931;-73
2023/07/30 09:14:02;;;;;;;;;;;;;;;57.00;7.50;96276.03;6101131;29;20436;-72
2023/07/30 09:17:04;;;;;;;;;;;;;;;57.23;7.80;96276.22;6084042;29;20029;-74
2023/07/30 09:20:07;;;;;;;;;;;;;;;57.33;7.07;96272.47;6100737;29;19931;-73
2023/07/30 09:23:12;;;;;;;;;;;;;;;55.51;7.98;96257.59;6100880;29;19927;-73
2023/07/30 09:26:14;;;;;;;;;;;;;;;55.20;8.19;96259.28;6084139;29;20325;-73
2023/07/30 09:29:16;;;;;;;;;;;;;;;55.79;8.24;96261.53;6100886;29;20306;-72
2023/07/30 09:32:25;;;;;;;;;;;;;;;55.91;8.10;96258.25;6084205;29;19934;-72
2023/07/30 09:35:32;;;;;;;;;;;;;;;56.11;7.64;96258.53;6100878;29;19938;-73
2023/07/30 09:38:41;;;;;;;;;;;;;;;56.41;7.46;96257.94;6100827;29;20025;-73
2023/07/30 09:41:45;;;;;;;;;;;;;;;55.99;8.03;96253.38;6100650;29;19927;-72
2023/07/30 09:44:49;;;;;;;;;;;;;;;55.46;7.77;96262.84;6100899;29;19927;-73
2023/07/30 09:47:57;;;;;;;;;;;;;;;53.97;8.74;96235.13;6100466;29;19927;-72
2023/07/30 09:51:03;;;;;;;;;;;;;;;53.17;8.82;96233.19;6083910;29;19927;-73
2023/07/30 09:54:11;;;;;;;;;;;;;;;52.72;9.28;96228.88;6100335;29;19927;-73
2023/07/30 09:57:14;;;;;;;;;;;;;;;53.70;8.69;96231.81;6099979;29;19998;-73
2023/07/30 10:00:15;;;;;;;;;;;;;;;54.29;8.22;96232.34;6103671;29;19934;-73
2023/07/30 10:03:17;;;;;;;;;;;;;;;53.90;8.86;96248.34;6088062;29;19985;-72
2023/07/30 10:06:23;;;;;;;;;;;;;;;52.62;9.30;96229.56;6104638;29;19931;-72
2023/07/30 10:09:30;;;;;;;;;;;;;;;53.06;9.09;96225.91;6105141;29;20393;-72
2023/07/30 10:12:37;;;;;;;;;;;;;;;53.28;9.11;96221.16;6104696;29;19927;-74
2023/07/30 10:15:43;;;;;;;;;;;;;;;52.92;8.81;96221.78;6104932;29;20309;-72
2023/07/30 10:18:45;;;;;;;;;;;;;;;52.02;9.58;96214.59;6104794;29;19923;-73
2023/07/30 10:21:48;;;;;;;;;;;;;;;52.16;9.37;96219.53;6088238;29;20337;-73
2023/07/30 10:24:57;;;;;;;;;;;;;;;51.28;9.80;96217.31;6104795;29;19927;-73
2023/07/30 10:28:01;;;;;;;;;;;;;;;50.79;10.17;96206.97;6104714;29;19923;-72
2023/07/30 10:31:09;;;;;;;;;;;;;;;51.30;9.87;96215.72;6104307;29;19933;-72
2023/07/30 10:34:13;;;;;;;;;;;;;;;51.19;9.87;96212.78;6104102;29;19938;-72
2023/07/30 10:37:25;;;;;;;;;;;;;;;49.75;10.74;96203.19;6104208;29;20031;-73
2023/07/30 10:40:27;;;;;;;;;;;;;;;49.06;10.96;96200.13;6087481;29;19935;-73
2023/07/30 10:43:34;;;;;;;;;;;;;;;49.16;11.50;96198.75;6104061;29;19931;-71
2023/07/30 10:46:36;;;;;;;;;;;;;;;48.46;11.44;96188.34;6103857;29;19934;-74
2023/07/30 10:49:40;;;;;;;;;;;;;;;48.16;12.09;96188.84;6071329;29;20025;-73
2023/07/30 10:52:42;;;;;;;;;;;;;;;47.10;12.67;96191.03;6103934;29;19934;-73
2023/07/30 10:55:45;;;;;;;;;;;;;;;46.64;12.76;96184.84;6104009;29;19927;-74
2023/07/30 10:58:49;;;;;;;;;;;;;;;46.73;12.83;96181.94;6087129;29;20408;-73
2023/07/30 11:01:53;;;;;;;;;;;;;;;45.11;13.85;96171.94;6103912;29;20017;-73
2023/07/30 11:04:55;;;;;;;;;;;;;;;45.20;13.77;96167.97;6104009;29;19934;-73
2023/07/30 11:07:58;;;;;;;;;;;;;;;45.57;13.46;96165.34;6103962;29;19934;-73
2023/07/30 11:11:01;;;;;;;;;;;;;;;44.68;13.80;96173.88;6103557;29;19933;-72
2023/07/30 11:14:05;;;;;;;;;;;;;;;44.67;13.97;96166.69;6103637;29;19923;-73
2023/07/30 11:17:07;;;;;;;;;;;;;;;45.16;14.01;96171.78;6103459;29;19927;-73
2023/07/30 11:20:21;;;;;;;;;;;;;;;45.26;13.79;96160.22;6103734;29;20025;-72
2023/07/30 11:23:24;;;;;;;;;;;;;;;45.70;13.86;96174.53;6103600;29;20054;-73
2023/07/30 11:26:27;;;;;;;;;;;;;;;44.01;15.23;96164.41;6103296;29;20055;-73
2023/07/30 11:29:31;;;;;;;;;;;;;;;42.42;16.83;96165.09;6103417;29;19934;-71
2023/07/30 11:32:35;;;;;;;;;;;;;;;40.64;18.00;96165.72;6103319;29;20014;-72
2023/07/30 11:35:38;;;;;;;;;;;;;;;39.27;19.36;96163.28;6103262;29;19933;-73
2023/07/30 11:38:43;;;;;;;;;;;;;;;38.18;20.61;96159.53;6103500;29;20318;-72
2023/07/30 11:41:46;;;;;;;;;;;;;;;37.28;21.23;96157.41;6103421;29;19958;-73
2023/07/30 11:44:51;;;;;;;;;;;;;;;37.75;20.84;96166.88;6102836;29;19933;-73
2023/07/30 11:48:07;;;;;;;;;;;;;;;38.33;20.32;96165.97;6102617;29;20021;-73
2023/07/30 11:51:26;;;;;;;;;;;;;;;38.80;19.86;96165.06;6102682;29;19931;-73
2023/07/30 11:54:28;;;;;;;;;;;;;;;39.02;19.79;96171.94;6102644;29;19926;-73
2023/07/30 11:57:35;;;;;;;;;;;;;;;38.59;20.63;96161.00;6102565;29;19926;-73
2023/07/30 12:00:39;;;;;;;;;;;;;;;38.59;20.66;96172.00;6085700;29;19998;-73
2023/07/30 12:03:42;;;;;;;;;;;;;;;38.27;21.11;96165.19;6102381;29;20389;-72
2023/07/30 12:06:48;;;;;;;;;;;;;;;38.22;20.76;96158.94;6102097;29;19933;-72
2023/07/30 12:09:51;;;;;;;;;;;;;;;38.66;20.02;96155.94;6102523;29;19978;-73
2023/07/30 12:12:54;;;;;;;;;;;;;;;38.82;20.18;96157.34;6102377;29;20386;-72
2023/07/30 12:15:58;;;;;;;;;;;;;;;38.70;20.11;96159.72;6085373;29;19926;-73
2023/07/30 12:19:02;;;;;;;;;;;;;;;38.08;21.25;96156.94;6102266;29;19927;-73
2023/07/30 12:22:09;;;;;;;;;;;;;;;37.05;22.19;96159.78;6101338;29;19927;-73
2023/07/30 12:25:10;;;;;;;;;;;;;;;36.91;22.19;96153.28;6101863;29;19927;-72
2023/07/30 12:28:16;;;;;;;;;;;;;;;37.46;21.42;96148.47;6101952;29;19929;-72
2023/07/30 12:31:23;;;;;;;;;;;;;;;38.19;20.87;96154.88;6069836;29;19927;-73
2023/07/30 12:34:28;;;;;;;;;;;;;;;38.24;20.72;96149.31;6102132;29;19923;-73
2023/07/30 12:37:35;;;;;;;;;;;;;;;38.27;20.61;96140.47;6101444;29;19938;-72
2023/07/30 12:40:42;;;;;;;;;;;;;;;38.38;21.05;96147.47;6101043;29;19934;-73
2023/07/30 12:43:47;;;;;;;;;;;;;;;38.16;21.24;96144.47;6085471;29;20041;-72
2023/07/30 12:46:51;;;;;;;;;;;;;;;38.03;21.39;96148.75;6085141;29;19927;-73
2023/07/30 12:49:52;;;;;;;;;;;;;;;38.21;21.00;96138.91;6101506;29;20305;-71
2023/07/30 12:52:57;;;;;;;;;;;;;;;37.74;21.44;96146.03;6101582;29;19927;-72
2023/07/30 12:56:01;;;;;;;;;;;;;;;37.58;21.17;96139.88;6101396;29;19935;-73
2023/07/30 12:59:05;;;;;;;;;;;;;;;37.11;21.99;96141.34;6101573;29;20029;-73
2023/07/30 13:02:08;;;;;;;;;;;;;;;36.59;22.15;96135.41;6100657;29;19933;-73
2023/07/30 13:05:15;;;;;;;;;;;;;;;36.27;22.62;96132.28;6101339;29;19931;-72
2023/07/30 13:08:21;;;;;;;;;;;;;;;35.70;23.34;96140.66;6101272;29;19927;-75
2023/07/30 13:11:22;;;;;;;;;;;;;;;35.59;23.95;96138.25;6100831;29;19966;-74
2023/07/30 13:14:27;;;;;;;;;;;;;;;35.15;24.34;96128.66;6100784;29;19927;-72
2023/07/30 13:17:33;;;;;;;;;;;;;;;34.66;24.96;96131.91;6101267;29;19927;-73
2023/07/30 13:20:37;;;;;;;;;;;;;;;34.52;24.91;96128.03;6100924;29;20315;-72
2023/07/30 13:23:40;;;;;;;;;;;;;;;34.23;25.05;96127.69;6100975;29;19927;-73
2023/07/30 13:26:42;;;;;;;;;;;;;;;34.03;25.44;96128.38;6100933;29;19927;-73
2023/07/30 13:29:46;;;;;;;;;;;;;;;33.83;25.71;96121.75;6100977;29;20310;-73
2023/07/30 13:32:48;;;;;;;;;;;;;;;33.93;25.40;96129.97;6100835;29;19933;-73
2023/07/30 13:35:52;;;;;;;;;;;;;;;33.56;26.02;96123.78;6106010;29;19937;-73
2023/07/30 13:38:56;;;;;;;;;;;;;;;33.14;26.55;96121.84;6106014;29;19923;-74
2023/07/30 13:41:59;;;;;;;;;;;;;;;32.94;27.03;96115.09;6105660;29;19970;-73
2023/07/30 13:45:03;;;;;;;;;;;;;;;32.55;27.68;96126.19;6105660;29;19927;-72
2023/07/30 13:48:06;;;;;;;;;;;;;;;32.55;27.98;96115.28;6105522;29;20342;-73
2023/07/30 13:51:10;;;;;;;;;;;;;;;32.13;27.88;96112.34;6105623;29;20320;-73
2023/07/30 13:54:15;;;;;;;;;;;;;;;31.79;27.93;96111.66;6105523;29;20553;-73
2023/07/30 13:57:23;;;;;;;;;;;;;;;31.69;28.14;96112.34;6104913;29;19927;-72
2023/07/30 14:00:27;;;;;;;;;;;;;;;31.70;28.95;96112.06;6087671;29;19927;-72
2023/07/30 14:03:31;;;;;;;;;;;;;;;31.63;28.56;96114.19;6104509;29;19927;-72
2023/07/30 14:06:32;;;;;;;;;;;;;;;31.73;28.73;96118.91;6105171;29;19934;-71
2023/07/30 14:09:37;;;;;;;;;;;;;;;31.57;29.28;96123.34;6104973;29;19927;-72
2023/07/30 14:12:40;;;;;;;;;;;;;;;31.44;29.30;96112.81;6104738;29;20067;-71
2023/07/30 14:15:41;;;;;;;;;;;;;;;31.50;29.39;96114.53;6103979;29;20009;-72
2023/07/30 14:18:46;;;;;;;;;;;;;;;31.68;29.27;96114.25;6088042;29;19927;-73
2023/07/30 14:21:49;;;;;;;;;;;;;;;31.51;29.39;96113.47;6103691;29;19994;-72
2023/07/30 14:24:55;;;;;;;;;;;;;;;31.64;29.71;96115.00;6104947;29;19927;-72
2023/07/30 14:27:56;;;;;;;;;;;;;;;31.44;30.00;96118.25;6104293;29;20398;-72
2023/07/30 14:30:58;;;;;;;;;;;;;;;31.23;30.00;96115.22;6103941;29;19934;-72
2023/07/30 14:34:00;;;;;;;;;;;;;;;31.00;30.46;96128.97;6086643;29;19978;-72
2023/07/30 14:37:03;;;;;;;;;;;;;;;30.99;30.71;96124.59;6086726;29;19927;-72
2023/07/30 14:40:07;;;;;;;;;;;;;;;30.73;30.13;96126.03;6104321;29;19927;-72
2023/07/30 14:43:13;;;;;;;;;;;;;;;30.83;30.45;96115.41;6104036;29;19927;-72
2023/07/30 14:46:15;;;;;;;;;;;;;;;30.83;30.83;96116.22;6102911;29;20029;-72
2023/07/30 14:49:17;;;;;;;;;;;;;;;30.59;31.06;96125.53;6086862;29;19934;-71
2023/07/30 14:52:20;;;;;;;;;;;;;;;30.32;30.83;96131.56;6102822;29;20321;-71
2023/07/30 14:55:24;;;;;;;;;;;;;;;30.02;31.24;96125.50;6103989;29;19927;-72
2023/07/30 14:58:27;;;;;;;;;;;;;;;30.00;31.91;96133.88;6103784;29;19927;-72
2023/07/30 15:01:29;;;;;;;;;;;;;;;29.87;32.20;96145.00;6103378;29;19927;-71
2023/07/30 15:04:30;;;;;;;;;;;;;;;29.63;32.29;96136.06;6103233;29;19931;-72
2023/07/30 15:07:33;;;;;;;;;;;;;;;29.57;32.45;96135.09;6102673;29;19934;-72
2023/07/30 15:10:39;;;;;;;;;;;;;;;29.40;32.67;96124.16;6103712;29;19927;-72
2023/07/30 15:13:44;;;;;;;;;;;;;;;29.32;32.57;96127.22;6103197;29;20321;-71
2023/07/30 15:16:50;;;;;;;;;;;;;;;29.23;32.52;96117.81;6103746;29;20380;-72
2023/07/30 15:19:54;;;;;;;;;;;;;;;29.22;33.33;96121.59;6103297;29;20397;-72
2023/07/30 15:22:59;;;;;;;;;;;;;;;29.06;33.05;96129.34;6085817;29;20025;-73
2023/07/30 15:26:00;;;;;;;;;;;;;;;28.98;32.89;96132.34;6085665;29;20308;-72
2023/07/30 15:29:06;;;;;;;;;;;;;;;28.85;32.90;96122.59;6102882;29;20394;-72
2023/07/30 15:32:10;;;;;;;;;;;;;;;28.78;33.18;96124.56;6103147;29;19933;-72
2023/07/30 15:35:15;;;;;;;;;;;;;;;28.72;33.30;96121.97;6103082;29;20016;-71
2023/07/30 15:38:21;;;;;;;;;;;;;;;28.71;33.83;96126.56;6102821;29;19927;-72
2023/07/30 15:41:22;;;;;;;;;;;;;;;28.50;34.54;96125.19;6102715;29;20430;-72
2023/07/30 15:44:25;;;;;;;;;;;;;;;28.36;34.93;96124.53;6101247;29;19927;-73
2023/07/30 15:47:28;;;;;;;;;;;;;;;28.23;34.63;96129.31;6102606;29;19934;-72
2023/07/30 15:50:32;;;;;;;;;;;;;;;28.07;34.92;96137.00;6101639;29;19935;-73
2023/07/30 15:53:37;;;;;;;;;;;;;;;28.02;35.60;96134.13;6102627;29;19978;-74
2023/07/30 15:56:41;;;;;;;;;;;;;;;27.86;35.63;96134.78;6101500;29;19930;-72
2023/07/30 15:59:46;;;;;;;;;;;;;;;27.70;35.98;96142.41;6102172;29;20076;-72
2023/07/30 16:02:47;;;;;;;;;;;;;;;27.59;35.78;96140.44;6101459;29;19938;-72
2023/07/30 16:05:52;;;;;;;;;;;;;;;27.48;35.84;96143.88;6102317;29;20429;-72
2023/07/30 16:08:53;;;;;;;;;;;;;;;27.38;35.83;96140.88;6103733;29;20726;-72
2023/07/30 16:11:54;;;;;;;;;;;;;;;27.34;35.83;96148.59;6101386;29;20413;-71
2023/07/30 16:15:01;;;;;;;;;;;;;;;27.53;36.80;96146.75;6102260;29;19960;-72
2023/07/30 16:18:09;;;;;;;;;;;;;;;27.33;36.44;96148.84;6102250;29;19942;-72
2023/07/30 16:21:12;;;;;;;;;;;;;;;27.13;36.95;96147.09;6101770;29;20425;-72
2023/07/30 16:24:18;;;;;;;;;;;;;;;27.04;36.85;96149.25;6101610;29;19927;-72
2023/07/30 16:27:19;;;;;;;;;;;;;;;27.00;36.74;96156.13;6102014;29;20022;-72
2023/07/30 16:30:23;;;;;;;;;;;;;;;26.94;36.44;96150.78;6101806;29;19923;-72
2023/07/30 16:33:27;;;;;;;;;;;;;;;26.92;36.46;96155.59;6101588;29;20030;-72
2023/07/30 16:36:29;;;;;;;;;;;;;;;26.90;36.45;96155.00;6084402;29;19934;-73
2023/07/30 16:39:32;;;;;;;;;;;;;;;26.98;37.29;96160.13;6084615;29;20014;-72
2023/07/30 16:42:38;;;;;;;;;;;;;;;26.88;37.31;96163.28;6101481;29;19927;-72
2023/07/30 16:45:40;;;;;;;;;;;;;;;26.75;36.83;96169.63;6101066;29;19927;-72
2023/07/30 16:48:41;;;;;;;;;;;;;;;26.94;37.63;96161.59;6100565;29;19950;-72
2023/07/30 16:51:47;;;;;;;;;;;;;;;26.73;38.17;96169.03;6101317;29;19934;-73
2023/07/30 16:54:49;;;;;;;;;;;;;;;26.71;38.47;96170.28;6100624;29;19949;-72